createdAt,value
2022-09-25T00:00:58.990Z,32.95
2022-09-25T00:02:01.214Z,32.10
2022-09-25T00:03:05.105Z,30.92
2022-09-25T00:04:08.121Z,34.22
2022-09-25T00:05:10.348Z,34.22
2022-09-25T00:06:15.651Z,32.50
2022-09-25T00:07:17.646Z,31.33
2022-09-25T00:08:21.913Z,32.45
2022-09-25T00:09:24.881Z,31.10
2022-09-25T00:10:28.868Z,30.88
2022-09-25T00:11:33.905Z,30.48
2022-09-25T00:12:36.081Z,31.00
2022-09-25T00:13:40.474Z,31.95
2022-09-25T00:14:42.444Z,30.48
2022-09-25T00:15:48.926Z,29.77
2022-09-25T00:16:50.954Z,29.38
2022-09-25T00:17:53.968Z,29.60
2022-09-25T00:19:14.426Z,29.70
2022-09-25T00:20:20.065Z,30.02
2022-09-25T00:21:22.337Z,30.08
2022-09-25T00:22:26.202Z,29.90
2022-09-25T00:23:29.537Z,30.08
2022-09-25T00:24:33.144Z,32.72
2022-09-25T00:25:35.198Z,30.63
2022-09-25T00:26:39.962Z,31.08
2022-09-25T00:27:42.747Z,31.45
2022-09-25T00:28:45.741Z,31.40
2022-09-25T00:29:47.689Z,30.45
2022-09-25T00:30:50.702Z,31.58
2022-09-25T00:31:54.995Z,31.15
2022-09-25T00:32:57.964Z,30.65
2022-09-25T00:34:01.636Z,31.20
2022-09-25T00:35:05.874Z,30.08
2022-09-25T00:36:10.173Z,29.88
2022-09-25T00:37:13.099Z,30.83
2022-09-25T00:38:15.112Z,31.95
2022-09-25T00:39:19.384Z,31.75
2022-09-25T00:40:22.127Z,32.08
2022-09-25T00:41:27.531Z,32.33
2022-09-25T00:42:29.475Z,31.88
2022-09-25T00:43:38.331Z,31.67
2022-09-25T00:44:58.526Z,32.33
2022-09-25T00:46:02.955Z,31.60
2022-09-25T00:47:05.469Z,31.45
2022-09-25T00:48:12.402Z,31.25
2022-09-25T00:49:17.582Z,31.70
2022-09-25T00:50:27.836Z,32.42
2022-09-25T00:51:38.914Z,31.42
2022-09-25T00:52:41.848Z,30.58
2022-09-25T00:53:44.134Z,32.13
2022-09-25T00:54:52.429Z,31.00
2022-09-25T00:55:56.231Z,31.85
2022-09-25T00:57:04.076Z,30.63
2022-09-25T00:58:07.131Z,31.55
2022-09-25T00:59:12.898Z,30.83
2022-09-25T01:00:15.978Z,30.27
2022-09-25T01:01:18.973Z,32.30
2022-09-25T01:02:25.990Z,31.60
2022-09-25T01:03:29.452Z,30.92
2022-09-25T01:04:35.448Z,31.42
2022-09-25T01:05:42.283Z,31.23
2022-09-25T01:06:44.277Z,30.77
2022-09-25T01:07:50.153Z,30.95
2022-09-25T01:08:53.279Z,30.63
2022-09-25T01:09:59.393Z,30.55
2022-09-25T01:11:02.785Z,32.10
2022-09-25T01:12:05.099Z,30.35
2022-09-25T01:13:08.299Z,30.70
2022-09-25T01:14:10.693Z,29.55
2022-09-25T01:15:20.334Z,30.65
2022-09-25T01:16:28.701Z,32.08
2022-09-25T01:17:42.478Z,30.77
2022-09-25T01:18:58.391Z,29.75
2022-09-25T01:20:12.740Z,28.95
2022-09-25T01:21:26.770Z,29.40
2022-09-25T01:22:39.706Z,31.08
2022-09-25T01:24:02.042Z,30.20
2022-09-25T01:25:15.788Z,29.98
2022-09-25T01:26:42.904Z,30.50
2022-09-25T01:28:04.415Z,28.48
2022-09-25T01:29:13.419Z,29.67
2022-09-25T01:30:18.181Z,29.45
2022-09-25T01:31:28.850Z,28.75
2022-09-25T01:32:36.479Z,29.05
2022-09-25T01:33:47.406Z,28.63
2022-09-25T01:34:57.550Z,30.17
2022-09-25T01:36:04.140Z,27.63
2022-09-25T01:37:15.264Z,30.55
2022-09-25T01:38:26.752Z,29.45
2022-09-25T01:39:34.041Z,28.98
2022-09-25T01:40:43.281Z,30.27
2022-09-25T01:41:50.945Z,30.35
2022-09-25T01:42:58.690Z,28.80
2022-09-25T01:44:06.272Z,30.17
2022-09-25T01:45:18.269Z,28.58
2022-09-25T01:46:24.254Z,31.23
2022-09-25T01:47:29.824Z,29.02
2022-09-25T01:48:33.698Z,28.67
2022-09-25T01:49:39.785Z,31.08
2022-09-25T01:50:47.260Z,30.05
2022-09-25T01:51:55.751Z,30.40
2022-09-25T01:53:05.149Z,30.70
2022-09-25T01:54:10.988Z,30.02
2022-09-25T01:55:19.633Z,31.35
2022-09-25T01:56:32.876Z,30.45
2022-09-25T01:57:42.186Z,31.20
2022-09-25T01:58:50.701Z,30.48
2022-09-25T01:59:58.485Z,28.88
2022-09-25T02:01:06.644Z,30.30
2022-09-25T02:02:14.727Z,30.10
2022-09-25T02:03:22.526Z,29.25
2022-09-25T02:04:30.178Z,29.65
2022-09-25T02:05:36.180Z,30.77
2022-09-25T02:06:41.245Z,30.35
2022-09-25T02:07:48.146Z,30.00
2022-09-25T02:08:56.704Z,30.77
2022-09-25T02:10:03.515Z,31.55
2022-09-25T02:11:08.057Z,30.40
2022-09-25T02:12:15.628Z,29.58
2022-09-25T02:13:20.989Z,30.38
2022-09-25T02:14:28.347Z,31.95
2022-09-25T02:15:35.240Z,31.85
2022-09-25T02:16:43.746Z,31.73
2022-09-25T02:18:16.666Z,31.35
2022-09-25T02:19:38.425Z,31.85
2022-09-25T02:20:44.966Z,30.48
2022-09-25T02:22:02.444Z,32.75
2022-09-25T02:23:11.559Z,32.50
2022-09-25T02:24:20.717Z,31.90
2022-09-25T02:25:31.925Z,32.13
2022-09-25T02:26:35.223Z,32.75
2022-09-25T02:27:38.338Z,33.53
2022-09-25T02:28:44.587Z,33.40
2022-09-25T02:29:47.507Z,32.03
2022-09-25T02:30:51.826Z,31.40
2022-09-25T02:31:59.632Z,33.10
2022-09-25T02:33:01.926Z,32.63
2022-09-25T02:34:05.359Z,33.83
2022-09-25T02:35:09.653Z,33.58
2022-09-25T02:36:19.092Z,32.20
2022-09-25T02:37:20.975Z,32.58
2022-09-25T02:38:24.662Z,34.03
2022-09-25T02:39:29.661Z,31.98
2022-09-25T02:40:37.488Z,33.05
2022-09-25T02:41:52.577Z,31.85
2022-09-25T02:43:02.485Z,31.88
2022-09-25T02:44:17.607Z,32.63
2022-09-25T02:45:33.389Z,32.97
2022-09-25T02:46:43.988Z,31.67
2022-09-25T02:47:59.776Z,32.13
2022-09-25T02:49:15.659Z,32.10
2022-09-25T02:50:25.550Z,32.00
2022-09-25T02:51:33.724Z,31.10
2022-09-25T02:52:45.365Z,32.65
2022-09-25T02:53:54.022Z,31.80
2022-09-25T02:55:02.660Z,31.75
2022-09-25T02:56:11.682Z,32.35
2022-09-25T02:57:21.519Z,32.30
2022-09-25T02:58:28.923Z,32.43
2022-09-25T02:59:34.705Z,32.40
2022-09-25T03:00:41.318Z,32.97
2022-09-25T03:01:45.863Z,34.30
2022-09-25T03:02:53.683Z,32.33
2022-09-25T03:03:57.467Z,33.75
2022-09-25T03:05:01.996Z,32.08
2022-09-25T03:06:06.181Z,33.97
2022-09-25T03:07:09.485Z,33.95
2022-09-25T03:08:30.118Z,34.22
2022-09-25T03:09:35.671Z,32.63
2022-09-25T03:10:38.946Z,34.83
2022-09-25T03:11:43.197Z,34.33
2022-09-25T03:12:46.123Z,37.05
2022-09-25T03:13:56.843Z,34.55
2022-09-25T03:16:05.258Z,33.60
2022-09-25T03:17:10.506Z,35.58
2022-09-25T03:18:14.504Z,34.97
2022-09-25T03:19:19.712Z,35.22
2022-09-25T03:20:21.711Z,34.08
2022-09-25T03:21:24.682Z,34.67
2022-09-25T03:22:26.613Z,36.00
2022-09-25T03:23:29.537Z,37.75
2022-09-25T03:24:31.485Z,36.53
2022-09-25T03:25:34.686Z,36.15
2022-09-25T03:26:37.767Z,37.08
2022-09-25T03:27:40.715Z,37.60
2022-09-25T03:28:43.630Z,37.33
2022-09-25T03:29:45.509Z,35.40
2022-09-25T03:30:58.412Z,36.35
2022-09-25T03:32:00.738Z,35.38
2022-09-25T03:33:03.635Z,35.88
2022-09-25T03:34:06.924Z,37.28
2022-09-25T03:35:10.448Z,35.40
2022-09-25T03:36:15.050Z,35.17
2022-09-25T03:37:16.999Z,36.88
2022-09-25T03:38:20.028Z,35.15
2022-09-25T03:39:22.260Z,35.78
2022-09-25T03:40:25.323Z,36.20
2022-09-25T03:41:30.761Z,35.28
2022-09-25T03:42:32.821Z,36.35
2022-09-25T03:43:36.659Z,36.00
2022-09-25T03:44:38.684Z,35.92
2022-09-25T03:45:42.860Z,35.60
2022-09-25T03:46:44.852Z,35.78
2022-09-25T03:47:47.767Z,35.38
2022-09-25T03:48:49.923Z,34.78
2022-09-25T03:49:54.149Z,34.65
2022-09-25T03:50:56.267Z,35.72
2022-09-25T03:52:00.278Z,35.10
2022-09-25T03:53:02.173Z,35.22
2022-09-25T03:54:05.293Z,33.30
2022-09-25T03:55:08.024Z,34.15
2022-09-25T03:56:13.956Z,34.83
2022-09-25T03:57:15.911Z,33.83
2022-09-25T03:58:19.501Z,33.83
2022-09-25T03:59:21.415Z,32.92
2022-09-25T04:00:24.900Z,33.85
2022-09-25T04:01:29.802Z,34.03
2022-09-25T04:02:31.843Z,33.58
2022-09-25T04:03:35.855Z,34.42
2022-09-25T04:04:37.738Z,32.05
2022-09-25T04:05:42.824Z,33.63
2022-09-25T04:06:44.713Z,32.45
2022-09-25T04:07:48.309Z,31.65
2022-09-25T04:08:50.975Z,32.40
2022-09-25T04:09:54.095Z,33.33
2022-09-25T04:10:59.233Z,32.05
2022-09-25T04:12:02.350Z,30.90
2022-09-25T04:13:04.721Z,30.75
2022-09-25T04:14:07.578Z,31.02
2022-09-25T04:15:10.397Z,30.33
2022-09-25T04:16:14.805Z,31.92
2022-09-25T04:17:16.714Z,31.17
2022-09-25T04:18:19.636Z,30.85
2022-09-25T04:19:21.594Z,29.88
2022-09-25T04:20:24.723Z,29.75
2022-09-25T04:21:28.050Z,29.80
2022-09-25T04:22:30.971Z,29.88
2022-09-25T04:23:33.056Z,28.60
2022-09-25T04:24:50.751Z,28.48
2022-09-25T04:25:53.255Z,28.98
2022-09-25T04:26:56.133Z,27.67
2022-09-25T04:27:58.448Z,28.75
2022-09-25T04:29:02.109Z,30.17
2022-09-25T04:30:04.878Z,28.35
2022-09-25T04:31:07.834Z,28.50
2022-09-25T04:32:28.365Z,28.85
2022-09-25T04:33:48.605Z,29.25
2022-09-25T04:34:50.522Z,28.17
2022-09-25T04:35:53.753Z,29.27
2022-09-25T04:36:56.989Z,28.27
2022-09-25T04:38:00.207Z,27.45
2022-09-25T04:39:02.095Z,28.40
2022-09-25T04:40:05.721Z,28.13
2022-09-25T04:41:08.233Z,27.73
2022-09-25T04:42:11.109Z,27.83
2022-09-25T04:43:13.010Z,27.83
2022-09-25T04:44:15.995Z,27.35
2022-09-25T04:45:17.937Z,26.83
2022-09-25T04:46:22.661Z,28.13
2022-09-25T04:47:26.869Z,28.13
2022-09-25T04:48:30.158Z,27.60
2022-09-25T04:49:32.072Z,28.38
2022-09-25T04:50:36.148Z,27.58
2022-09-25T04:51:38.070Z,26.67
2022-09-25T04:52:42.280Z,26.30
2022-09-25T04:53:44.204Z,27.83
2022-09-25T04:54:47.653Z,28.23
2022-09-25T04:55:49.574Z,26.77
2022-09-25T04:56:53.479Z,27.80
2022-09-25T04:57:59.052Z,28.20
2022-09-25T04:59:02.132Z,27.23
2022-09-25T05:00:05.495Z,27.90
2022-09-25T05:01:10.260Z,28.05
2022-09-25T05:02:13.026Z,27.92
2022-09-25T05:03:16.106Z,27.77
2022-09-25T05:04:18.045Z,27.55
2022-09-25T05:05:20.923Z,26.50
2022-09-25T05:06:23.111Z,27.35
2022-09-25T05:07:25.997Z,28.50
2022-09-25T05:08:30.294Z,28.05
2022-09-25T05:09:32.768Z,27.55
2022-09-25T05:10:35.972Z,27.88
2022-09-25T05:11:37.893Z,27.20
2022-09-25T05:12:41.245Z,27.20
2022-09-25T05:13:46.405Z,26.95
2022-09-25T05:14:49.273Z,27.20
2022-09-25T05:15:52.254Z,26.88
2022-09-25T05:16:54.218Z,26.13
2022-09-25T05:18:04.238Z,26.58
2022-09-25T05:19:06.209Z,26.88
2022-09-25T05:20:09.994Z,25.58
2022-09-25T05:21:12.017Z,26.85
2022-09-25T05:22:14.903Z,25.80
2022-09-25T05:23:17.369Z,25.95
2022-09-25T05:24:21.673Z,25.20
2022-09-25T05:25:25.110Z,26.20
2022-09-25T05:26:30.039Z,24.73
2022-09-25T05:27:33.152Z,25.20
2022-09-25T05:28:36.009Z,25.55
2022-09-25T05:29:38.906Z,26.48
2022-09-25T05:30:41.763Z,25.90
2022-09-25T05:31:46.775Z,25.50
2022-09-25T05:32:50.459Z,25.88
2022-09-25T05:33:53.992Z,25.13
2022-09-25T05:34:56.893Z,25.02
2022-09-25T05:36:01.261Z,25.77
2022-09-25T05:37:04.527Z,24.50
2022-09-25T05:38:06.768Z,25.92
2022-09-25T05:39:14.231Z,24.98
2022-09-25T05:40:20.987Z,25.10
2022-09-25T05:41:24.680Z,24.83
2022-09-25T05:42:26.931Z,24.52
2022-09-25T05:43:29.841Z,25.70
2022-09-25T05:44:32.963Z,25.65
2022-09-25T05:45:36.026Z,25.55
2022-09-25T05:46:38.044Z,24.25
2022-09-25T05:47:41.414Z,25.13
2022-09-25T05:48:43.419Z,23.90
2022-09-25T05:49:46.363Z,24.92
2022-09-25T05:50:51.485Z,24.25
2022-09-25T05:51:54.412Z,26.50
2022-09-25T05:52:56.848Z,25.52
2022-09-25T05:54:00.241Z,26.50
2022-09-25T05:55:03.410Z,26.17
2022-09-25T05:56:08.378Z,26.23
2022-09-25T05:57:10.285Z,25.80
2022-09-25T05:58:13.158Z,26.95
2022-09-25T05:59:15.020Z,27.45
2022-09-25T06:00:18.457Z,26.73
2022-09-25T06:01:20.861Z,26.23
2022-09-25T06:02:23.873Z,25.67
2022-09-25T06:03:29.700Z,26.83
2022-09-25T06:04:32.614Z,27.55
2022-09-25T06:05:34.760Z,26.70
2022-09-25T06:06:37.717Z,25.88
2022-09-25T06:07:40.006Z,26.42
2022-09-25T06:08:42.878Z,27.88
2022-09-25T06:09:44.843Z,27.05
2022-09-25T06:10:53.921Z,28.02
2022-09-25T06:11:57.191Z,26.90
2022-09-25T06:13:01.164Z,22.20
2022-09-25T06:14:03.951Z,18.17
2022-09-25T06:15:07.743Z,18.23
2022-09-25T06:16:14.471Z,16.77
2022-09-25T06:17:17.385Z,14.32
2022-09-25T06:18:21.027Z,14.52
2022-09-25T06:19:23.940Z,14.82
2022-09-25T06:20:25.832Z,15.55
2022-09-25T06:21:28.845Z,14.35
2022-09-25T06:22:30.729Z,11.27
2022-09-25T06:23:33.774Z,8.65
2022-09-25T06:24:35.699Z,7.85
2022-09-25T06:25:38.662Z,6.65
2022-09-25T06:26:40.932Z,6.38
2022-09-25T06:27:45.099Z,6.65
2022-09-25T06:28:46.979Z,4.50
2022-09-25T06:29:50.166Z,5.00
2022-09-25T06:30:52.203Z,4.43
2022-09-25T06:31:55.185Z,4.47
2022-09-25T06:32:58.290Z,4.30
2022-09-25T06:34:01.399Z,3.90
2022-09-25T06:35:04.381Z,3.97
2022-09-25T06:36:07.330Z,3.78
2022-09-25T06:37:09.263Z,3.97
2022-09-25T06:38:13.163Z,3.80
2022-09-25T06:39:15.093Z,4.10
2022-09-25T06:40:18.013Z,4.38
2022-09-25T06:41:19.981Z,4.50
2022-09-25T06:42:23.526Z,4.07
2022-09-25T06:43:27.853Z,4.32
2022-09-25T06:44:30.710Z,4.40
2022-09-25T06:45:34.108Z,4.65
2022-09-25T06:46:37.401Z,4.90
2022-09-25T06:47:39.377Z,4.80
2022-09-25T06:48:42.626Z,4.90
2022-09-25T06:49:44.474Z,4.88
2022-09-25T06:50:49.635Z,5.45
2022-09-25T06:51:51.620Z,4.80
2022-09-25T06:52:54.489Z,5.05
2022-09-25T06:53:56.360Z,4.72
2022-09-25T06:55:00.531Z,5.18
2022-09-25T06:56:02.771Z,4.97
2022-09-25T06:57:05.708Z,5.43
2022-09-25T06:58:10.708Z,5.50
2022-09-25T06:59:14.977Z,6.00
2022-09-25T07:00:17.107Z,5.90
2022-09-25T07:01:20.022Z,6.38
2022-09-25T07:02:40.781Z,6.10
2022-09-25T07:03:45.773Z,5.57
2022-09-25T07:04:51.420Z,6.38
2022-09-25T07:05:54.337Z,6.50
2022-09-25T07:06:58.514Z,6.70
2022-09-25T07:08:01.709Z,6.47
2022-09-25T07:09:04.867Z,7.32
2022-09-25T07:10:07.915Z,7.20
2022-09-25T07:11:14.230Z,6.93
2022-09-25T07:12:18.425Z,6.95
2022-09-25T07:13:24.521Z,7.03
2022-09-25T07:14:27.906Z,7.80
2022-09-25T07:15:31.218Z,7.60
2022-09-25T07:16:34.637Z,7.65
2022-09-25T07:17:36.579Z,7.70
2022-09-25T07:18:39.734Z,7.88
2022-09-25T07:19:41.658Z,7.70
2022-09-25T07:20:46.805Z,8.52
2022-09-25T07:21:48.709Z,8.05
2022-09-25T07:22:53.689Z,7.90
2022-09-25T07:23:57.462Z,8.13
2022-09-25T07:24:59.431Z,8.57
2022-09-25T07:26:07.440Z,8.32
2022-09-25T07:27:09.468Z,8.80
2022-09-25T07:28:14.018Z,8.23
2022-09-25T07:29:16.400Z,8.40
2022-09-25T07:30:20.614Z,8.55
2022-09-25T07:31:24.493Z,8.13
2022-09-25T07:32:27.387Z,8.73
2022-09-25T07:33:29.296Z,8.57
2022-09-25T07:34:32.533Z,8.75
2022-09-25T07:35:35.146Z,8.82
2022-09-25T07:36:39.241Z,8.63
2022-09-25T07:37:41.392Z,9.05
2022-09-25T07:38:46.156Z,8.75
2022-09-25T07:39:48.119Z,9.48
2022-09-25T07:40:53.972Z,8.98
2022-09-25T07:41:55.881Z,9.30
2022-09-25T07:43:00.112Z,9.73
2022-09-25T07:44:24.816Z,9.52
2022-09-25T07:45:28.133Z,9.60
2022-09-25T07:46:31.411Z,9.43
2022-09-25T07:47:33.426Z,9.75
2022-09-25T07:48:36.450Z,9.40
2022-09-25T07:49:40.168Z,9.25
2022-09-25T07:50:43.060Z,10.00
2022-09-25T07:51:44.973Z,9.75
2022-09-25T07:52:47.856Z,9.45
2022-09-25T07:53:50.312Z,9.25
2022-09-25T07:54:53.202Z,8.90
2022-09-25T07:56:00.986Z,9.30
2022-09-25T07:57:12.532Z,8.98
2022-09-25T07:58:15.191Z,8.90
2022-09-25T07:59:18.334Z,8.00
2022-09-25T08:00:21.213Z,8.05
2022-09-25T08:01:24.545Z,8.63
2022-09-25T08:02:27.522Z,8.18
2022-09-25T08:03:29.532Z,7.72
2022-09-25T08:04:32.398Z,8.02
2022-09-25T08:05:34.559Z,8.52
2022-09-25T08:06:38.302Z,7.97
2022-09-25T08:07:41.240Z,8.25
2022-09-25T08:08:44.677Z,8.25
2022-09-25T08:09:46.559Z,8.60
2022-09-25T08:10:49.420Z,8.23
2022-09-25T08:11:51.819Z,8.60
2022-09-25T08:12:54.717Z,8.57
2022-09-25T08:17:22.589Z,7.72
2022-09-25T08:18:28.300Z,8.45
2022-09-25T08:19:37.649Z,7.93
2022-09-25T08:20:40.296Z,8.10
2022-09-25T08:21:43.906Z,7.82
2022-09-25T08:22:45.975Z,7.78
2022-09-25T08:23:51.351Z,8.07
2022-09-25T08:24:54.954Z,7.32
2022-09-25T08:25:57.015Z,8.10
2022-09-25T08:27:00.052Z,8.38
2022-09-25T08:28:03.061Z,8.52
2022-09-25T08:29:08.235Z,8.10
2022-09-25T08:30:11.837Z,8.50
2022-09-25T08:31:15.740Z,8.40
2022-09-25T08:32:17.902Z,8.60
2022-09-25T08:33:22.341Z,8.25
2022-09-25T08:34:41.321Z,8.23
2022-09-25T08:35:45.649Z,8.38
2022-09-25T08:36:49.221Z,8.38
2022-09-25T08:37:52.322Z,8.93
2022-09-25T08:38:56.169Z,8.57
2022-09-25T08:39:59.974Z,8.35
2022-09-25T08:41:05.006Z,7.82
2022-09-25T08:42:21.407Z,8.05
2022-09-25T08:43:27.378Z,7.57
2022-09-25T08:45:09.171Z,7.50
2022-09-25T08:46:37.686Z,7.80
2022-09-25T08:48:02.025Z,7.45
2022-09-25T08:49:11.514Z,7.72
2022-09-25T08:50:24.974Z,7.65
2022-09-25T08:51:30.727Z,7.57
2022-09-25T08:52:36.365Z,8.55
2022-09-25T08:53:40.400Z,7.43
2022-09-25T08:54:45.724Z,7.57
2022-09-25T08:56:07.200Z,7.75
2022-09-25T08:57:19.929Z,7.00
2022-09-25T08:58:25.733Z,7.60
2022-09-25T08:59:32.950Z,7.80
2022-09-25T09:00:35.020Z,7.22
2022-09-25T09:01:44.764Z,7.93
2022-09-25T09:02:52.134Z,7.78
2022-09-25T09:04:03.258Z,7.28
2022-09-25T09:05:15.385Z,8.25
2022-09-25T09:06:19.614Z,8.15
2022-09-25T09:07:27.576Z,8.20
2022-09-25T09:08:34.532Z,8.82
2022-09-25T09:09:41.988Z,8.38
2022-09-25T09:10:48.261Z,8.63
2022-09-25T09:11:56.711Z,8.90
2022-09-25T09:13:03.319Z,8.35
2022-09-25T09:14:16.655Z,9.43
2022-09-25T09:15:27.150Z,9.23
2022-09-25T09:16:36.258Z,9.45
2022-09-25T09:17:43.977Z,9.23
2022-09-25T09:18:46.175Z,8.90
2022-09-25T09:19:53.139Z,8.95
2022-09-25T09:20:58.225Z,8.95
2022-09-25T09:22:10.562Z,8.82
2022-09-25T09:23:18.906Z,8.30
2022-09-25T09:24:29.844Z,8.77
2022-09-25T09:25:43.117Z,8.40
2022-09-25T09:27:13.612Z,8.70
2022-09-25T09:28:40.868Z,7.88
2022-09-25T09:30:06.022Z,8.27
2022-09-25T09:31:16.589Z,7.80
2022-09-25T09:32:33.304Z,8.15
2022-09-25T09:33:49.130Z,8.25
2022-09-25T09:35:06.638Z,8.23
2022-09-25T09:36:18.530Z,8.45
2022-09-25T09:37:30.210Z,8.20
2022-09-25T09:38:46.257Z,8.23
2022-09-25T09:40:04.194Z,8.77
2022-09-25T09:41:25.169Z,8.57
2022-09-25T09:42:38.209Z,8.90
2022-09-25T09:43:57.377Z,8.40
2022-09-25T09:45:13.068Z,8.88
2022-09-25T09:46:21.961Z,8.35
2022-09-25T09:47:39.655Z,8.77
2022-09-25T09:48:53.347Z,8.77
2022-09-25T09:50:05.862Z,8.73
2022-09-25T09:51:13.517Z,8.68
2022-09-25T09:52:22.942Z,9.00
2022-09-25T09:53:32.477Z,9.00
2022-09-25T09:54:42.938Z,9.32
2022-09-25T09:55:49.101Z,8.60
2022-09-25T09:56:53.738Z,9.00
2022-09-25T09:57:59.645Z,9.38
2022-09-25T09:59:05.204Z,9.60
2022-09-25T10:00:16.884Z,9.32
2022-09-25T10:02:51.860Z,9.15
2022-09-25T10:04:04.434Z,9.70
2022-09-25T10:05:13.807Z,10.15
2022-09-25T10:06:22.425Z,9.82
2022-09-25T10:07:28.292Z,9.43
2022-09-25T10:08:30.509Z,9.45
2022-09-25T10:09:33.763Z,8.98
2022-09-25T10:10:37.877Z,9.30
2022-09-25T10:11:42.379Z,9.35
2022-09-25T10:12:47.959Z,10.00
2022-09-25T10:13:51.284Z,10.40
2022-09-25T10:14:53.403Z,10.05
2022-09-25T10:16:01.008Z,9.38
2022-09-25T10:17:04.564Z,10.35
2022-09-25T10:18:08.879Z,10.50
2022-09-25T10:19:19.239Z,9.82
2022-09-25T10:20:24.620Z,9.55
2022-09-25T10:21:31.988Z,10.13
2022-09-25T10:22:41.570Z,9.32
2022-09-25T10:23:49.470Z,8.50
2022-09-25T10:24:55.575Z,8.00
2022-09-25T10:26:00.012Z,7.93
2022-09-25T10:27:22.705Z,7.97
2022-09-25T10:28:30.940Z,7.63
2022-09-25T10:29:32.937Z,7.97
2022-09-25T10:30:35.991Z,7.22
2022-09-25T10:31:40.796Z,7.53
2022-09-25T10:32:46.971Z,7.20
2022-09-25T10:34:01.904Z,7.53
2022-09-25T10:35:04.377Z,7.25
2022-09-25T10:36:08.014Z,7.30
2022-09-25T10:37:21.163Z,7.50
2022-09-25T10:38:40.056Z,7.25
2022-09-25T10:39:45.151Z,7.40
2022-09-25T10:41:00.391Z,7.45
2022-09-25T10:42:08.322Z,7.55
2022-09-25T10:43:17.941Z,7.05
2022-09-25T10:44:32.047Z,7.10
2022-09-25T10:45:37.654Z,6.47
2022-09-25T10:47:02.334Z,6.95
2022-09-25T10:48:44.514Z,7.20
2022-09-25T10:50:06.722Z,7.25
2022-09-25T10:51:11.480Z,6.78
2022-09-25T10:52:19.678Z,6.78
2022-09-25T10:53:30.118Z,7.38
2022-09-25T10:54:36.848Z,7.13
2022-09-25T10:55:46.329Z,6.93
2022-09-25T10:56:50.705Z,7.32
2022-09-25T10:57:58.790Z,7.43
2022-09-25T10:59:05.486Z,7.32
2022-09-25T11:00:21.634Z,8.10
2022-09-25T11:01:35.415Z,7.30
2022-09-25T11:02:41.480Z,7.78
2022-09-25T11:03:51.399Z,7.95
2022-09-25T11:04:56.043Z,8.45
2022-09-25T11:06:03.787Z,7.63
2022-09-25T11:07:20.953Z,7.80
2022-09-25T11:08:25.202Z,7.80
2022-09-25T11:09:29.892Z,7.10
2022-09-25T11:10:36.367Z,7.55
2022-09-25T11:11:41.030Z,7.50
2022-09-25T11:12:45.304Z,7.65
2022-09-25T11:13:51.067Z,7.65
2022-09-25T11:14:58.016Z,7.75
2022-09-25T11:16:03.259Z,7.43
2022-09-25T11:17:08.423Z,7.72
2022-09-25T11:18:43.363Z,8.23
2022-09-25T11:19:46.599Z,7.75
2022-09-25T11:21:01.329Z,7.60
2022-09-25T11:22:17.745Z,7.78
2022-09-25T11:23:34.219Z,8.20
2022-09-25T11:24:49.342Z,7.78
2022-09-25T11:26:00.703Z,7.88
2022-09-25T11:27:08.929Z,7.00
2022-09-25T11:28:17.197Z,8.02
2022-09-25T11:29:28.139Z,8.00
2022-09-25T11:30:39.511Z,7.45
2022-09-25T11:31:45.471Z,7.32
2022-09-25T11:32:55.584Z,7.35
2022-09-25T11:34:11.731Z,7.07
2022-09-25T11:35:31.930Z,7.43
2022-09-25T11:36:40.883Z,7.35
2022-09-25T11:37:53.586Z,7.32
2022-09-25T11:39:21.088Z,6.65
2022-09-25T11:41:02.164Z,6.20
2022-09-25T11:42:10.681Z,6.65
2022-09-25T11:43:16.866Z,6.18
2022-09-25T11:44:31.749Z,6.07
2022-09-25T11:45:40.190Z,6.47
2022-09-25T11:46:51.488Z,5.40
2022-09-25T11:47:59.587Z,5.57
2022-09-25T11:49:12.517Z,6.15
2022-09-25T11:50:17.121Z,5.97
2022-09-25T11:51:30.182Z,6.10
2022-09-25T11:52:41.077Z,6.25
2022-09-25T11:53:53.045Z,6.32
2022-09-25T11:55:15.978Z,6.10
2022-09-25T11:56:32.817Z,5.80
2022-09-25T11:57:42.478Z,6.30
2022-09-25T11:58:59.785Z,6.13
2022-09-25T12:00:12.990Z,6.47
2022-09-25T12:01:25.892Z,6.45
2022-09-25T12:02:40.845Z,6.75
2022-09-25T12:03:57.104Z,6.10
2022-09-25T12:05:17.697Z,6.20
2022-09-25T12:06:39.661Z,5.32
2022-09-25T12:08:01.313Z,5.90
2022-09-25T12:09:23.936Z,5.35
2022-09-25T12:10:39.558Z,4.95
2022-09-25T12:11:50.174Z,5.35
2022-09-25T12:12:59.580Z,5.55
2022-09-25T12:14:08.963Z,5.22
2022-09-25T12:15:20.372Z,5.57
2022-09-25T12:16:31.741Z,5.30
2022-09-25T12:17:42.490Z,5.43
2022-09-25T12:20:05.048Z,5.60
2022-09-25T12:21:15.164Z,5.40
2022-09-25T12:22:27.863Z,5.53
2022-09-25T12:23:33.616Z,5.70
2022-09-25T12:24:52.343Z,5.72
2022-09-25T12:26:18.219Z,5.65
2022-09-25T12:27:43.148Z,6.25
2022-09-25T12:28:58.625Z,5.53
2022-09-25T12:30:17.762Z,5.70
2022-09-25T12:31:30.392Z,5.85
2022-09-25T12:32:48.193Z,5.95
2022-09-25T12:33:59.405Z,6.10
2022-09-25T12:35:18.557Z,6.05
2022-09-25T12:36:26.283Z,5.30
2022-09-25T12:37:38.642Z,6.70
2022-09-25T12:38:48.488Z,5.70
2022-09-25T12:39:55.688Z,4.73
2022-09-25T12:41:05.615Z,4.20
2022-09-25T12:42:17.685Z,4.55
2022-09-25T12:43:25.241Z,4.70
2022-09-25T12:44:40.464Z,4.38
2022-09-25T12:45:50.553Z,4.53
2022-09-25T12:47:02.264Z,4.80
2022-09-25T12:48:11.989Z,4.55
2022-09-25T12:49:20.778Z,4.53
2022-09-25T12:50:29.010Z,5.07
2022-09-25T12:51:40.460Z,4.72
2022-09-25T12:52:47.676Z,6.25
2022-09-25T12:53:56.869Z,4.47
2022-09-25T12:55:03.127Z,3.70
2022-09-25T12:56:14.262Z,3.45
2022-09-25T12:57:22.470Z,3.95
2022-09-25T12:58:39.093Z,3.28
2022-09-25T12:59:48.057Z,3.22
2022-09-25T13:00:56.676Z,3.17
2022-09-25T13:02:05.965Z,3.13
2022-09-25T13:03:13.792Z,3.05
2022-09-25T13:04:42.000Z,2.95
2022-09-25T13:05:51.588Z,2.80
2022-09-25T13:07:04.046Z,3.15
2022-09-25T13:08:14.779Z,3.58
2022-09-25T13:10:33.720Z,3.83
2022-09-25T13:11:45.455Z,3.00
2022-09-25T13:12:51.095Z,3.30
2022-09-25T13:13:55.377Z,2.70
2022-09-25T13:15:01.138Z,3.00
2022-09-25T13:16:05.244Z,2.88
2022-09-25T13:17:12.203Z,2.70
2022-09-25T13:18:19.046Z,3.33
2022-09-25T13:19:29.106Z,3.05
2022-09-25T13:20:55.760Z,2.45
2022-09-25T13:22:04.737Z,2.80
2022-09-25T13:23:14.043Z,2.85
2022-09-25T13:24:19.883Z,2.85
2022-09-25T13:25:22.880Z,2.55
2022-09-25T13:26:27.825Z,2.97
2022-09-25T13:27:42.773Z,2.75
2022-09-25T13:28:53.801Z,3.03
2022-09-25T13:29:59.601Z,2.85
2022-09-25T13:31:09.199Z,2.55
2022-09-25T13:32:19.023Z,2.80
2022-09-25T13:33:22.377Z,2.58
2022-09-25T13:34:26.569Z,2.85
2022-09-25T13:35:29.914Z,2.80
2022-09-25T13:36:40.283Z,2.80
2022-09-25T13:37:43.499Z,2.72
2022-09-25T13:39:04.685Z,2.53
2022-09-25T13:40:34.348Z,2.40
2022-09-25T13:41:36.694Z,2.67
2022-09-25T13:42:46.276Z,2.60
2022-09-25T13:43:49.572Z,2.20
2022-09-25T13:45:06.353Z,2.38
2022-09-25T13:46:33.793Z,2.30
2022-09-25T13:48:17.499Z,2.60
2022-09-25T13:49:34.500Z,2.35
2022-09-25T13:50:45.790Z,2.40
2022-09-25T13:51:48.274Z,2.40
2022-09-25T13:53:24.518Z,2.47
2022-09-25T13:54:28.425Z,2.78
2022-09-25T13:55:32.128Z,2.70
2022-09-25T13:56:49.434Z,3.22
2022-09-25T13:58:04.932Z,2.38
2022-09-25T13:59:24.518Z,3.47
2022-09-25T14:00:32.883Z,2.60
2022-09-25T14:01:39.330Z,2.33
2022-09-25T14:02:44.567Z,2.20
2022-09-25T14:03:49.658Z,2.72
2022-09-25T14:04:53.028Z,2.28
2022-09-25T14:05:55.119Z,3.08
2022-09-25T14:07:06.763Z,2.80
2022-09-25T14:08:17.045Z,2.35
2022-09-25T14:09:22.619Z,2.33
2022-09-25T14:10:27.351Z,2.30
2022-09-25T14:11:33.515Z,2.75
2022-09-25T14:12:45.419Z,2.70
2022-09-25T14:13:55.224Z,2.67
2022-09-25T14:15:03.229Z,2.37
2022-09-25T14:16:15.374Z,2.30
2022-09-25T14:17:19.087Z,1.95
2022-09-25T14:18:26.297Z,2.55
2022-09-25T14:19:31.369Z,2.60
2022-09-25T14:20:41.121Z,2.47
2022-09-25T14:21:44.568Z,2.40
2022-09-25T14:22:54.059Z,2.63
2022-09-25T14:23:57.874Z,2.42
2022-09-25T14:25:01.184Z,2.28
2022-09-25T14:26:06.246Z,2.78
2022-09-25T14:27:19.871Z,2.70
2022-09-25T14:28:25.970Z,2.58
2022-09-25T14:29:37.891Z,2.30
2022-09-25T14:30:41.239Z,2.30
2022-09-25T14:31:53.167Z,2.67
2022-09-25T14:33:22.335Z,2.50
2022-09-25T14:34:50.656Z,2.50
2022-09-25T14:36:02.042Z,2.50
2022-09-25T14:37:21.232Z,2.33
2022-09-25T14:38:38.457Z,2.90
2022-09-25T14:39:48.778Z,2.60
2022-09-25T14:41:06.382Z,2.45
2022-09-25T14:42:30.623Z,2.40
2022-09-25T14:43:50.816Z,2.70
2022-09-25T14:45:15.503Z,3.05
2022-09-25T14:46:20.454Z,3.05
2022-09-25T14:47:23.751Z,3.08
2022-09-25T14:48:30.031Z,2.65
2022-09-25T14:49:38.001Z,2.50
2022-09-25T14:50:45.810Z,2.60
2022-09-25T14:51:50.442Z,2.42
2022-09-25T14:52:57.265Z,2.00